Time;durP1;ratioP1;P1;durP2;ratioP2;P2;SDS_P1;SDS_P2;PMS_P1;PMS_P2;Temp;Humidity;BMP_temperature;BMP_pressure;BME280_temperature;BME280_humidity;BME280_pressure;Samples;Min_cycle;Max_cycle;Signal;HPM_P1;HPM_P2
2022/03/28 00:02:21;;;;;;;41.17;12.03;;;;;;;;;;5036163;28;20270;-72
2022/03/28 00:04:46;;;;;;;48.58;12.35;;;;;;;;;;5038364;28;20262;-72
2022/03/28 00:07:11;;;;;;;48.45;12.85;;;;;;;;;;5040031;28;20025;-72
2022/03/28 00:09:36;;;;;;;49.90;13.95;;;;;;;;;;5037652;28;20263;-72
2022/03/28 00:12:02;;;;;;;49.35;14.10;;;;;;;;;;5045700;28;20276;-72
2022/03/28 00:14:27;;;;;;;52.45;13.55;;;;;;;;;;5037579;28;20325;-72
2022/03/28 00:16:55;;;;;;;49.17;14.15;;;;;;;;;;5035768;28;20391;-72
2022/03/28 00:19:20;;;;;;;45.97;12.82;;;;;;;;;;5038126;28;20398;-72
2022/03/28 00:21:45;;;;;;;45.78;14.55;;;;;;;;;;5036974;28;20736;-72
2022/03/28 00:24:10;;;;;;;48.08;13.23;;;;;;;;;;5036640;28;20277;-72
2022/03/28 00:26:35;;;;;;;55.88;12.15;;;;;;;;;;5038948;28;20285;-72
2022/03/28 00:29:00;;;;;;;34.60;11.43;;;;;;;;;;5036947;28;20651;-72
2022/03/28 00:31:25;;;;;;;52.27;12.30;;;;;;;;;;5048820;28;20032;-72
2022/03/28 00:33:51;;;;;;;49.90;14.30;;;;;;;;;;5038555;28;20468;-72
2022/03/28 00:36:16;;;;;;;52.60;12.60;;;;;;;;;;5040507;28;20660;-72
2022/03/28 00:38:41;;;;;;;47.97;13.45;;;;;;;;;;5040614;28;20032;-72
2022/03/28 00:41:06;;;;;;;50.17;13.60;;;;;;;;;;5040787;28;20017;-72
2022/03/28 00:43:32;;;;;;;49.55;14.40;;;;;;;;;;5040218;28;20032;-72
2022/03/28 00:45:57;;;;;;;44.25;13.90;;;;;;;;;;5041763;28;20043;-72
2022/03/28 00:48:26;;;;;;;56.28;14.35;;;;;;;;;;5044752;28;20253;-72
2022/03/28 00:50:51;;;;;;;49.13;13.93;;;;;;;;;;5040415;28;20090;-72
2022/03/28 00:53:16;;;;;;;51.53;13.90;;;;;;;;;;5045352;28;20475;-72
2022/03/28 00:55:42;;;;;;;66.55;14.57;;;;;;;;;;5038452;28;20029;-72
2022/03/28 00:58:07;;;;;;;45.25;12.80;;;;;;;;;;5039278;28;20033;-72
2022/03/28 01:00:33;;;;;;;53.28;13.55;;;;;;;;;;5043748;28;20036;-72
2022/03/28 01:02:58;;;;;;;49.35;12.77;;;;;;;;;;5046478;28;20312;-72
2022/03/28 01:05:24;;;;;;;46.88;12.75;;;;;;;;;;5043841;28;20520;-73
2022/03/28 01:07:49;;;;;;;47.33;13.60;;;;;;;;;;5037131;28;20255;-72
2022/03/28 01:10:14;;;;;;;39.17;12.02;;;;;;;;;;5039800;28;20028;-72
2022/03/28 01:12:42;;;;;;;54.10;13.35;;;;;;;;;;5045908;28;20342;-72
2022/03/28 01:15:08;;;;;;;55.30;13.13;;;;;;;;;;5050334;28;20041;-72
2022/03/28 01:20:17;;;;;;;55.40;13.37;;;;;;;;;;5044843;28;20517;-72
2022/03/28 01:22:42;;;;;;;64.38;14.48;;;;;;;;;;5043456;28;20587;-72
2022/03/28 01:25:08;;;;;;;40.53;13.27;;;;;;;;;;5040140;28;20395;-72
2022/03/28 01:27:33;;;;;;;52.00;12.82;;;;;;;;;;5042446;28;20273;-72
2022/03/28 01:29:58;;;;;;;53.83;13.90;;;;;;;;;;5043196;28;20025;-72
2022/03/28 01:32:23;;;;;;;60.78;13.32;;;;;;;;;;5049807;28;20100;-72
2022/03/28 01:34:49;;;;;;;55.20;12.63;;;;;;;;;;5042738;28;20031;-72
2022/03/28 01:37:14;;;;;;;55.20;12.70;;;;;;;;;;5038399;28;20309;-72
2022/03/28 01:39:39;;;;;;;45.70;12.63;;;;;;;;;;5043532;28;20031;-72
2022/03/28 01:42:05;;;;;;;58.60;13.35;;;;;;;;;;5044461;28;20025;-73
2022/03/28 01:44:30;;;;;;;45.63;12.60;;;;;;;;;;5039215;28;20346;-71
2022/03/28 01:46:55;;;;;;;56.28;12.55;;;;;;;;;;5040652;28;20032;-72
2022/03/28 01:49:21;;;;;;;47.40;13.65;;;;;;;;;;5039472;28;20059;-72
2022/03/28 01:51:47;;;;;;;59.08;13.52;;;;;;;;;;5044879;28;20402;-72
2022/03/28 01:54:12;;;;;;;56.00;12.02;;;;;;;;;;5040098;28;20025;-72
2022/03/28 01:56:40;;;;;;;50.60;12.48;;;;;;;;;;5039290;28;20033;-72
2022/03/28 01:59:06;;;;;;;43.88;12.57;;;;;;;;;;5039731;28;20029;-72
2022/03/28 02:01:31;;;;;;;49.92;12.60;;;;;;;;;;5041218;28;20059;-72
2022/03/28 02:03:57;;;;;;;51.25;12.95;;;;;;;;;;5038827;28;20478;-72
2022/03/28 02:06:22;;;;;;;47.03;12.73;;;;;;;;;;5039182;28;20117;-72
2022/03/28 02:08:47;;;;;;;47.75;12.30;;;;;;;;;;5037384;28;20029;-72
2022/03/28 02:11:12;;;;;;;68.05;12.57;;;;;;;;;;5040122;28;20029;-73
2022/03/28 02:13:38;;;;;;;55.63;13.07;;;;;;;;;;5037083;28;20266;-72
2022/03/28 02:16:03;;;;;;;44.97;12.37;;;;;;;;;;5040806;28;20282;-72
2022/03/28 02:18:28;;;;;;;59.05;13.57;;;;;;;;;;5041393;28;20274;-72
2022/03/28 02:20:54;;;;;;;58.08;12.45;;;;;;;;;;5039717;28;20027;-72
2022/03/28 02:23:19;;;;;;;46.67;12.25;;;;;;;;;;5037751;28;20033;-72
2022/03/28 02:25:44;;;;;;;49.83;12.18;;;;;;;;;;5038626;28;20094;-72
2022/03/28 02:28:11;;;;;;;52.10;11.48;;;;;;;;;;5039239;28;20029;-72
2022/03/28 02:30:36;;;;;;;55.65;12.27;;;;;;;;;;5042646;28;20613;-72
2022/03/28 02:33:01;;;;;;;61.95;11.93;;;;;;;;;;5040282;28;20100;-72
2022/03/28 02:35:27;;;;;;;47.87;11.03;;;;;;;;;;5039130;28;20447;-72
2022/03/28 02:37:52;;;;;;;57.15;12.60;;;;;;;;;;5037520;28;20285;-72
2022/03/28 02:40:17;;;;;;;58.13;11.75;;;;;;;;;;5046038;28;20301;-72
2022/03/28 02:42:43;;;;;;;59.00;11.90;;;;;;;;;;5041308;28;20036;-72
2022/03/28 02:45:08;;;;;;;48.40;11.18;;;;;;;;;;5037129;28;20380;-72
2022/03/28 02:47:33;;;;;;;52.28;11.50;;;;;;;;;;5038760;28;20368;-72
2022/03/28 02:49:59;;;;;;;50.55;11.98;;;;;;;;;;5038447;28;20479;-72
2022/03/28 02:52:24;;;;;;;50.50;11.43;;;;;;;;;;5044234;28;20092;-72
2022/03/28 02:54:49;;;;;;;49.88;12.40;;;;;;;;;;5042071;28;20025;-72
2022/03/28 02:57:14;;;;;;;52.67;11.38;;;;;;;;;;5041411;28;20025;-72
2022/03/28 02:59:40;;;;;;;48.67;11.18;;;;;;;;;;5040718;28;20029;-72
2022/03/28 03:02:05;;;;;;;35.47;9.15;;;;;;;;;;5037729;28;20153;-72
2022/03/28 03:04:34;;;;;;;46.03;12.23;;;;;;;;;;5042286;28;20041;-72
2022/03/28 03:06:59;;;;;;;50.03;11.60;;;;;;;;;;5034650;28;20056;-72
2022/03/28 03:09:25;;;;;;;46.35;11.00;;;;;;;;;;5040632;28;20469;-72
2022/03/28 03:11:51;;;;;;;52.95;11.55;;;;;;;;;;5040409;28;20424;-72
2022/03/28 03:14:16;;;;;;;46.60;11.00;;;;;;;;;;5040900;28;20029;-72
2022/03/28 03:16:41;;;;;;;44.85;12.02;;;;;;;;;;5034170;28;20298;-72
2022/03/28 03:19:06;;;;;;;40.50;9.02;;;;;;;;;;5042286;28;20036;-72
2022/03/28 03:21:32;;;;;;;53.75;12.15;;;;;;;;;;5035471;28;20058;-72
2022/03/28 03:23:57;;;;;;;48.17;10.55;;;;;;;;;;5032910;28;20038;-72
2022/03/28 03:26:22;;;;;;;50.50;10.00;;;;;;;;;;5045094;28;20039;-72
2022/03/28 03:28:47;;;;;;;44.60;10.40;;;;;;;;;;5040359;28;20263;-72
2022/03/28 03:31:12;;;;;;;65.30;12.30;;;;;;;;;;5039181;28;20380;-72
2022/03/28 03:33:38;;;;;;;39.75;10.40;;;;;;;;;;5040656;28;20025;-72
2022/03/28 03:36:03;;;;;;;48.60;10.15;;;;;;;;;;5041378;28;20040;-72
2022/03/28 03:38:29;;;;;;;54.45;11.48;;;;;;;;;;5039544;28;20038;-72
2022/03/28 03:40:54;;;;;;;41.53;9.23;;;;;;;;;;5041990;28;20025;-72
2022/03/28 03:43:19;;;;;;;37.92;9.30;;;;;;;;;;5037898;28;20021;-72
2022/03/28 03:45:44;;;;;;;42.67;10.33;;;;;;;;;;5041062;28;20034;-71
2022/03/28 03:48:09;;;;;;;42.90;10.50;;;;;;;;;;5039581;28;20274;-72
2022/03/28 03:50:35;;;;;;;39.60;9.95;;;;;;;;;;5037596;28;20029;-72
2022/03/28 03:53:00;;;;;;;47.45;9.45;;;;;;;;;;5039857;28;20013;-72
2022/03/28 03:55:25;;;;;;;45.95;10.20;;;;;;;;;;5042314;28;20035;-72
2022/03/28 03:57:50;;;;;;;53.17;9.30;;;;;;;;;;5036631;28;20029;-72
2022/03/28 04:00:16;;;;;;;38.03;9.73;;;;;;;;;;5038589;28;20021;-72
2022/03/28 04:02:41;;;;;;;41.08;8.82;;;;;;;;;;5033765;28;20021;-72
2022/03/28 04:05:06;;;;;;;46.60;10.82;;;;;;;;;;5035548;28;20378;-72
2022/03/28 04:07:32;;;;;;;60.08;10.77;;;;;;;;;;5041580;28;20648;-72
2022/03/28 04:10:03;;;;;;;47.35;9.85;;;;;;;;;;5037451;28;20036;-72
2022/03/28 04:12:28;;;;;;;41.30;9.18;;;;;;;;;;5040677;28;20807;-72
2022/03/28 04:14:57;;;;;;;39.90;9.70;;;;;;;;;;5037002;28;20029;-72
2022/03/28 04:17:23;;;;;;;54.92;10.35;;;;;;;;;;5039970;28;20636;-72
2022/03/28 04:19:48;;;;;;;44.75;10.23;;;;;;;;;;5041350;28;20083;-72
2022/03/28 04:22:13;;;;;;;46.27;9.97;;;;;;;;;;5040416;28;20025;-72
2022/03/28 04:24:38;;;;;;;31.67;9.90;;;;;;;;;;5038727;28;20269;-72
2022/03/28 04:27:04;;;;;;;38.08;9.98;;;;;;;;;;5041037;28;20278;-72
2022/03/28 04:29:29;;;;;;;46.75;10.10;;;;;;;;;;5041762;28;20070;-72
2022/03/28 04:31:54;;;;;;;32.80;8.45;;;;;;;;;;5039930;28;20039;-72
2022/03/28 04:34:19;;;;;;;35.50;9.18;;;;;;;;;;5038791;28;20029;-72
2022/03/28 04:36:44;;;;;;;62.33;12.80;;;;;;;;;;5036286;28;20028;-72
2022/03/28 04:39:11;;;;;;;61.88;13.90;;;;;;;;;;5044959;28;20066;-72
2022/03/28 04:41:36;;;;;;;62.88;13.98;;;;;;;;;;5041140;28;20273;-72
2022/03/28 04:44:01;;;;;;;66.43;12.52;;;;;;;;;;5042011;28;20478;-71
2022/03/28 04:46:26;;;;;;;55.17;12.60;;;;;;;;;;5038513;28;20279;-72
2022/03/28 04:48:51;;;;;;;90.57;16.87;;;;;;;;;;5040888;28;20070;-72
2022/03/28 04:51:17;;;;;;;80.13;15.93;;;;;;;;;;5042243;28;20615;-72
2022/03/28 04:53:42;;;;;;;49.80;14.40;;;;;;;;;;5034393;28;20101;-72
2022/03/28 04:56:07;;;;;;;60.92;14.98;;;;;;;;;;5037057;28;20029;-72
2022/03/28 04:58:32;;;;;;;73.53;13.30;;;;;;;;;;5039272;28;20056;-72
2022/03/28 05:00:57;;;;;;;56.67;13.55;;;;;;;;;;5041323;28;20037;-74
2022/03/28 05:03:23;;;;;;;54.97;13.13;;;;;;;;;;5039884;28;20285;-72
2022/03/28 05:05:49;;;;;;;52.92;11.38;;;;;;;;;;5040288;28;20057;-71
2022/03/28 05:08:14;;;;;;;49.45;12.82;;;;;;;;;;5038570;28;20140;-72
2022/03/28 05:10:40;;;;;;;43.22;10.15;;;;;;;;;;5035796;28;20025;-71
2022/03/28 05:13:06;;;;;;;54.08;11.45;;;;;;;;;;5035178;28;20255;-71
2022/03/28 05:15:31;;;;;;;43.83;10.07;;;;;;;;;;5038990;28;20040;-72
2022/03/28 05:17:57;;;;;;;46.22;10.82;;;;;;;;;;5038906;28;20033;-71
2022/03/28 05:20:22;;;;;;;41.22;10.52;;;;;;;;;;5045404;28;20397;-72
2022/03/28 05:22:47;;;;;;;52.50;11.80;;;;;;;;;;5043422;28;20062;-71
2022/03/28 05:25:13;;;;;;;49.57;12.00;;;;;;;;;;5044718;28;20063;-72
2022/03/28 05:27:42;;;;;;;39.00;9.83;;;;;;;;;;5038867;28;20613;-72
2022/03/28 05:30:07;;;;;;;47.28;10.27;;;;;;;;;;5043924;28;20258;-72
2022/03/28 05:32:33;;;;;;;43.17;9.80;;;;;;;;;;5048952;28;20055;-72
2022/03/28 05:34:58;;;;;;;31.45;8.32;;;;;;;;;;5046003;28;20432;-72
2022/03/28 05:37:23;;;;;;;35.92;8.88;;;;;;;;;;5042374;28;20946;-72
2022/03/28 05:39:48;;;;;;;45.45;10.77;;;;;;;;;;5041796;28;20754;-72
2022/03/28 05:42:14;;;;;;;28.40;9.27;;;;;;;;;;5044479;28;20029;-73
2022/03/28 05:44:40;;;;;;;33.95;10.05;;;;;;;;;;5045270;28;20272;-72
2022/03/28 05:47:06;;;;;;;37.75;10.65;;;;;;;;;;5047912;28;20020;-72
2022/03/28 05:49:31;;;;;;;27.58;7.78;;;;;;;;;;5047891;28;20029;-72
2022/03/28 05:51:56;;;;;;;24.03;8.17;;;;;;;;;;5046092;28;20027;-71
2022/03/28 05:54:21;;;;;;;31.27;9.77;;;;;;;;;;5039832;28;20272;-73
2022/03/28 05:56:48;;;;;;;37.63;9.47;;;;;;;;;;5043045;28;20623;-72
2022/03/28 05:59:13;;;;;;;50.75;14.13;;;;;;;;;;5046285;28;20265;-73
2022/03/28 06:01:38;;;;;;;55.65;13.48;;;;;;;;;;5039730;28;20025;-72
2022/03/28 06:04:04;;;;;;;41.42;10.15;;;;;;;;;;5043225;28;20036;-72
2022/03/28 06:06:30;;;;;;;46.08;12.57;;;;;;;;;;5037089;28;20018;-72
2022/03/28 06:08:55;;;;;;;46.97;9.95;;;;;;;;;;5047432;28;20032;-72
2022/03/28 06:11:20;;;;;;;41.83;11.18;;;;;;;;;;5044514;28;20031;-73
2022/03/28 06:13:45;;;;;;;41.05;9.80;;;;;;;;;;5045910;28;20025;-73
2022/03/28 06:16:11;;;;;;;47.95;11.45;;;;;;;;;;5039830;28;20036;-72
2022/03/28 06:18:36;;;;;;;39.45;11.35;;;;;;;;;;5039171;28;20079;-72
2022/03/28 06:21:01;;;;;;;52.85;11.40;;;;;;;;;;5046061;28;20025;-72
2022/03/28 06:23:26;;;;;;;52.38;11.50;;;;;;;;;;5047507;28;20035;-72
2022/03/28 06:25:52;;;;;;;46.77;10.67;;;;;;;;;;5044352;28;20043;-72
2022/03/28 06:28:17;;;;;;;34.17;11.10;;;;;;;;;;5040173;28;20265;-72
2022/03/28 06:30:43;;;;;;;63.05;13.57;;;;;;;;;;5043003;28;20708;-72
2022/03/28 06:33:08;;;;;;;61.60;12.65;;;;;;;;;;5044816;28;20033;-72
2022/03/28 06:35:33;;;;;;;57.40;17.70;;;;;;;;;;5047816;28;20032;-72
2022/03/28 06:37:58;;;;;;;65.93;16.95;;;;;;;;;;5044837;28;20357;-72
2022/03/28 06:40:24;;;;;;;60.05;18.13;;;;;;;;;;5060360;28;20032;-71
2022/03/28 06:42:49;;;;;;;64.78;20.40;;;;;;;;;;5047209;28;20074;-72
2022/03/28 06:45:15;;;;;;;69.72;18.23;;;;;;;;;;5042833;28;20037;-71
2022/03/28 06:47:40;;;;;;;53.20;15.55;;;;;;;;;;5047465;28;20033;-72
2022/03/28 06:50:07;;;;;;;69.18;17.13;;;;;;;;;;5045391;28;20079;-72
2022/03/28 06:52:32;;;;;;;81.35;18.90;;;;;;;;;;5045050;28;20025;-71
2022/03/28 06:54:58;;;;;;;83.43;16.65;;;;;;;;;;5038138;28;20036;-71
2022/03/28 06:57:23;;;;;;;69.05;17.15;;;;;;;;;;5045915;28;20117;-71
2022/03/28 06:59:48;;;;;;;86.93;19.13;;;;;;;;;;5045880;28;20410;-71
2022/03/28 07:02:13;;;;;;;66.00;16.58;;;;;;;;;;5044153;28;20120;-71
2022/03/28 07:04:38;;;;;;;80.15;18.05;;;;;;;;;;5043588;28;20828;-71
2022/03/28 07:07:04;;;;;;;77.43;18.10;;;;;;;;;;5038838;28;20282;-71
2022/03/28 07:09:29;;;;;;;84.60;19.00;;;;;;;;;;5044209;28;20017;-71
2022/03/28 07:11:55;;;;;;;88.68;16.58;;;;;;;;;;5046036;28;20740;-71
2022/03/28 07:14:20;;;;;;;72.07;17.63;;;;;;;;;;5046455;28;20028;-71
2022/03/28 07:16:45;;;;;;;71.82;16.25;;;;;;;;;;5042452;28;20024;-71
2022/03/28 07:19:10;;;;;;;58.50;16.25;;;;;;;;;;5039512;28;20028;-71
2022/03/28 07:21:36;;;;;;;68.05;15.82;;;;;;;;;;5040573;28;20036;-71
2022/03/28 07:24:01;;;;;;;66.43;15.77;;;;;;;;;;5043621;28;20025;-72
2022/03/28 07:26:26;;;;;;;68.28;15.98;;;;;;;;;;5045411;28;20082;-72
2022/03/28 07:28:51;;;;;;;68.43;19.63;;;;;;;;;;5042844;28;20041;-71
2022/03/28 07:31:18;;;;;;;87.77;18.43;;;;;;;;;;5041114;28;20033;-71
2022/03/28 07:33:43;;;;;;;58.63;16.23;;;;;;;;;;5034386;28;20534;-75
2022/03/28 07:36:09;;;;;;;69.13;17.20;;;;;;;;;;5043490;28;20062;-70
2022/03/28 07:38:35;;;;;;;70.72;16.27;;;;;;;;;;5038938;28;20056;-71
2022/03/28 07:41:00;;;;;;;68.68;18.60;;;;;;;;;;5045421;28;20055;-71
2022/03/28 07:43:26;;;;;;;77.43;19.67;;;;;;;;;;5039856;28;20029;-72
2022/03/28 07:45:53;;;;;;;71.75;23.13;;;;;;;;;;5043393;28;20078;-71
2022/03/28 07:48:19;;;;;;;68.15;16.80;;;;;;;;;;5042143;28;20409;-71
2022/03/28 07:50:45;;;;;;;64.05;16.40;;;;;;;;;;5042931;28;20013;-71
2022/03/28 07:53:10;;;;;;;76.57;18.55;;;;;;;;;;5042839;28;20017;-71
2022/03/28 07:55:36;;;;;;;61.87;20.77;;;;;;;;;;5043539;28;20068;-71
2022/03/28 07:58:03;;;;;;;97.87;28.83;;;;;;;;;;5044460;28;20307;-71
2022/03/28 08:00:29;;;;;;;89.53;21.25;;;;;;;;;;5041528;28;20338;-71
2022/03/28 08:02:55;;;;;;;91.30;23.80;;;;;;;;;;5037868;28;20423;-71
2022/03/28 08:05:20;;;;;;;82.88;21.42;;;;;;;;;;5033105;28;20675;-72
2022/03/28 08:07:45;;;;;;;82.15;20.90;;;;;;;;;;5041285;28;20025;-71
2022/03/28 08:10:10;;;;;;;93.70;22.20;;;;;;;;;;5045565;28;20456;-71
2022/03/28 08:12:37;;;;;;;85.20;22.20;;;;;;;;;;5042618;28;20029;-71
2022/03/28 08:15:03;;;;;;;113.85;26.55;;;;;;;;;;5040144;28;20049;-71
2022/03/28 08:17:28;;;;;;;93.07;24.40;;;;;;;;;;5044089;28;20077;-71
2022/03/28 08:19:53;;;;;;;92.07;22.27;;;;;;;;;;5044128;28;20049;-71
2022/03/28 08:22:18;;;;;;;82.93;23.47;;;;;;;;;;5043970;28;20270;-71
2022/03/28 08:24:43;;;;;;;92.00;25.50;;;;;;;;;;5043328;28;20263;-71
2022/03/28 08:27:09;;;;;;;82.38;24.42;;;;;;;;;;5042539;28;20587;-72
2022/03/28 08:29:34;;;;;;;91.67;23.37;;;;;;;;;;5040713;28;20095;-72
2022/03/28 08:32:00;;;;;;;93.53;25.87;;;;;;;;;;5041734;28;20029;-71
2022/03/28 08:34:25;;;;;;;95.55;25.27;;;;;;;;;;5045335;28;20659;-71
2022/03/28 08:36:50;;;;;;;84.50;22.43;;;;;;;;;;5038328;28;20544;-71
2022/03/28 08:39:16;;;;;;;81.40;22.63;;;;;;;;;;5045392;28;20033;-70
2022/03/28 08:41:41;;;;;;;78.82;22.15;;;;;;;;;;5045537;28;20029;-71
2022/03/28 08:44:06;;;;;;;82.35;22.50;;;;;;;;;;5042774;28;20295;-71
2022/03/28 08:46:31;;;;;;;106.40;24.27;;;;;;;;;;5045318;28;20486;-71
2022/03/28 08:48:57;;;;;;;87.65;26.15;;;;;;;;;;5042469;28;20521;-71
2022/03/28 08:51:23;;;;;;;96.47;24.17;;;;;;;;;;5040269;28;20032;-71
2022/03/28 08:53:48;;;;;;;111.53;24.38;;;;;;;;;;5040120;28;20021;-71
2022/03/28 08:56:13;;;;;;;99.57;25.15;;;;;;;;;;5046038;28;20096;-71
2022/03/28 08:58:38;;;;;;;137.73;27.53;;;;;;;;;;5040863;28;20386;-70
2022/03/28 09:01:04;;;;;;;104.13;26.97;;;;;;;;;;5039080;28;20041;-71
2022/03/28 09:03:39;;;;;;;97.63;25.92;;;;;;;;;;5037592;28;20254;-71
2022/03/28 09:06:23;;;;;;;94.30;26.35;;;;;;;;;;5044167;28;20483;-71
2022/03/28 09:08:48;;;;;;;99.43;25.33;;;;;;;;;;5041657;28;20033;-70
2022/03/28 09:11:20;;;;;;;85.67;25.17;;;;;;;;;;5048132;28;20051;-71
2022/03/28 09:13:46;;;;;;;103.28;24.60;;;;;;;;;;5045234;28;20032;-70
2022/03/28 09:16:17;;;;;;;104.75;28.17;;;;;;;;;;5048178;28;20475;-70
2022/03/28 09:18:43;;;;;;;83.80;25.25;;;;;;;;;;5039730;28;20041;-70
2022/03/28 09:21:11;;;;;;;240.52;53.83;;;;;;;;;;5045327;28;20040;-70
2022/03/28 09:23:46;;;;;;;87.55;26.17;;;;;;;;;;5047140;28;20398;-70
2022/03/28 09:26:11;;;;;;;94.75;25.75;;;;;;;;;;5043538;28;20091;-70
2022/03/28 09:28:46;;;;;;;103.70;26.80;;;;;;;;;;5045033;28;20021;-70
2022/03/28 09:31:19;;;;;;;98.60;26.23;;;;;;;;;;5048295;28;20125;-69
2022/03/28 09:34:04;;;;;;;97.50;26.05;;;;;;;;;;5054808;28;20025;-70
2022/03/28 09:36:29;;;;;;;;;;;;;;;;;;5037903;28;20033;-69
2022/03/28 09:38:55;;;;;;;91.57;23.98;;;;;;;;;;5036146;28;19959;-70
2022/03/28 09:41:22;;;;;;;99.88;27.63;;;;;;;;;;5036845;28;20448;-69
2022/03/28 09:43:52;;;;;;;94.28;26.48;;;;;;;;;;5045610;28;20295;-70
2022/03/28 09:46:24;;;;;;;95.95;26.70;;;;;;;;;;5038738;28;20305;-70
2022/03/28 09:48:49;;;;;;;126.00;30.70;;;;;;;;;;5047213;28;20025;-70
2022/03/28 09:51:16;;;;;;;109.85;28.40;;;;;;;;;;5046500;28;20021;-70
2022/03/28 09:53:41;;;;;;;88.40;24.50;;;;;;;;;;5047242;28;20367;-70
2022/03/28 09:56:08;;;;;;;101.03;27.75;;;;;;;;;;5044831;28;20507;-70
2022/03/28 09:58:34;;;;;;;95.95;26.95;;;;;;;;;;5043522;28;20060;-71
2022/03/28 10:01:00;;;;;;;102.97;27.70;;;;;;;;;;5043588;28;20024;-70
2022/03/28 10:03:29;;;;;;;101.45;25.98;;;;;;;;;;5043296;28;20029;-70
2022/03/28 10:05:54;;;;;;;103.63;27.70;;;;;;;;;;5043223;28;20368;-69
2022/03/28 10:08:20;;;;;;;81.68;23.92;;;;;;;;;;5042676;28;20078;-70
2022/03/28 10:10:45;;;;;;;77.97;23.10;;;;;;;;;;5045019;28;20036;-69
2022/03/28 10:13:10;;;;;;;86.97;22.98;;;;;;;;;;5034438;28;20076;-70
2022/03/28 10:15:36;;;;;;;95.13;26.52;;;;;;;;;;5044989;28;20029;-70
2022/03/28 10:18:01;;;;;;;90.53;25.73;;;;;;;;;;5045088;28;20024;-68
2022/03/28 10:20:27;;;;;;;84.60;26.33;;;;;;;;;;5046632;28;20522;-68
2022/03/28 10:22:53;;;;;;;97.57;28.73;;;;;;;;;;5045766;28;20265;-68
2022/03/28 10:25:21;;;;;;;95.63;30.27;;;;;;;;;;5046289;28;20025;-68
2022/03/28 10:27:47;;;;;;;98.07;29.75;;;;;;;;;;5046834;28;20021;-68
2022/03/28 10:30:27;;;;;;;92.03;28.17;;;;;;;;;;5044688;28;20017;-71
2022/03/28 10:33:11;;;;;;;99.75;29.88;;;;;;;;;;5040016;28;20124;-69
2022/03/28 10:35:36;;;;;;;;;;;;;;;;;;5039908;28;20505;-74
2022/03/28 10:38:15;;;;;;;113.50;32.33;;;;;;;;;;5042080;28;20329;-70
2022/03/28 10:40:53;;;;;;;103.95;30.45;;;;;;;;;;5045720;28;20029;-70
2022/03/28 10:43:18;;;;;;;106.22;29.30;;;;;;;;;;5049064;28;20024;-70
2022/03/28 10:45:57;;;;;;;99.93;30.43;;;;;;;;;;5043304;28;20490;-70
2022/03/28 10:48:41;;;;;;;101.22;30.92;;;;;;;;;;5047878;28;20028;-70
2022/03/28 10:51:14;;;;;;;95.00;28.92;;;;;;;;;;5047899;28;20535;-69
2022/03/28 10:53:43;;;;;;;118.60;34.33;;;;;;;;;;5044278;28;20041;-70
2022/03/28 10:56:27;;;;;;;99.43;32.00;;;;;;;;;;5043588;28;20036;-70
2022/03/28 10:58:53;;;;;;;107.78;33.15;;;;;;;;;;5047709;28;20025;-70
2022/03/28 11:01:22;;;;;;;116.82;33.75;;;;;;;;;;5046554;28;20530;-70
2022/03/28 11:03:48;;;;;;;112.78;33.30;;;;;;;;;;5040764;28;20034;-70
2022/03/28 11:06:13;;;;;;;115.90;34.53;;;;;;;;;;5042243;28;20025;-70
2022/03/28 11:08:47;;;;;;;118.50;34.28;;;;;;;;;;5039985;28;20667;-70
2022/03/28 11:11:20;;;;;;;116.53;34.53;;;;;;;;;;5047331;28;20025;-70
2022/03/28 11:14:00;;;;;;;99.43;32.95;;;;;;;;;;5045095;28;20036;-70
2022/03/28 11:16:38;;;;;;;99.93;32.58;;;;;;;;;;5039381;28;20037;-70
2022/03/28 11:19:23;;;;;;;103.97;34.17;;;;;;;;;;5039147;28;20071;-70
2022/03/28 11:22:04;;;;;;;100.03;33.13;;;;;;;;;;5045137;28;20156;-69
2022/03/28 11:24:42;;;;;;;101.20;36.00;;;;;;;;;;5040056;28;20021;-69
2022/03/28 11:27:08;;;;;;;88.10;31.95;;;;;;;;;;5042001;28;20040;-71
2022/03/28 11:29:33;;;;;;;95.43;33.95;;;;;;;;;;5043693;28;20021;-70
2022/03/28 11:32:03;;;;;;;98.47;33.55;;;;;;;;;;5045995;28;20028;-69
2022/03/28 11:34:28;;;;;;;104.35;33.28;;;;;;;;;;5042851;28;20063;-68
2022/03/28 11:36:57;;;;;;;104.27;33.17;;;;;;;;;;5041557;28;20478;-70
2022/03/28 11:39:22;;;;;;;98.10;31.98;;;;;;;;;;5040753;28;20263;-70
2022/03/28 11:41:48;;;;;;;100.82;34.33;;;;;;;;;;5038423;28;20541;-66
2022/03/28 11:44:13;;;;;;;147.23;37.17;;;;;;;;;;5045101;28;20086;-68
2022/03/28 11:46:38;;;;;;;89.87;31.10;;;;;;;;;;5038130;28;20036;-68
2022/03/28 11:49:05;;;;;;;97.57;32.10;;;;;;;;;;5045189;28;20262;-66
2022/03/28 11:51:31;;;;;;;98.55;31.13;;;;;;;;;;5041984;28;20427;-68
2022/03/28 11:53:58;;;;;;;98.95;33.85;;;;;;;;;;5043454;28;20116;-68
2022/03/28 11:56:24;;;;;;;93.03;32.30;;;;;;;;;;5044963;28;20440;-66
2022/03/28 11:58:49;;;;;;;86.70;30.95;;;;;;;;;;5043220;28;20029;-66
2022/03/28 12:01:16;;;;;;;96.63;31.87;;;;;;;;;;5044235;28;20043;-68
2022/03/28 12:03:47;;;;;;;99.13;33.78;;;;;;;;;;5044008;28;20028;-66
2022/03/28 12:06:24;;;;;;;104.78;32.67;;;;;;;;;;5035734;28;20024;-66
2022/03/28 12:08:52;;;;;;;90.95;30.50;;;;;;;;;;5043695;28;20021;-66
2022/03/28 12:11:17;;;;;;;102.88;33.03;;;;;;;;;;5044243;28;20555;-66
2022/03/28 12:13:42;;;;;;;110.63;34.53;;;;;;;;;;5043736;28;20025;-69
2022/03/28 12:16:07;;;;;;;105.90;33.75;;;;;;;;;;5039058;28;20040;-68
2022/03/28 12:18:33;;;;;;;99.45;32.67;;;;;;;;;;5043981;28;20044;-69
2022/03/28 12:20:58;;;;;;;93.00;31.30;;;;;;;;;;5042179;28;20100;-67
2022/03/28 12:23:25;;;;;;;87.82;30.60;;;;;;;;;;5042552;28;20289;-67
2022/03/28 12:25:51;;;;;;;87.20;30.20;;;;;;;;;;5043093;28;20029;-68
2022/03/28 12:28:19;;;;;;;89.82;31.08;;;;;;;;;;5045935;28;20021;-68
2022/03/28 12:30:50;;;;;;;92.15;33.67;;;;;;;;;;5044600;28;20043;-69
2022/03/28 12:33:26;;;;;;;111.63;34.30;;;;;;;;;;5038197;28;20448;-68
2022/03/28 12:35:52;;;;;;;93.00;32.00;;;;;;;;;;5039973;28;20021;-68
2022/03/28 12:38:22;;;;;;;94.20;32.65;;;;;;;;;;5040484;28;20017;-69
2022/03/28 12:40:55;;;;;;;98.78;31.75;;;;;;;;;;5039910;28;20028;-69
2022/03/28 12:43:23;;;;;;;88.00;30.85;;;;;;;;;;5045229;28;20017;-70
2022/03/28 12:45:49;;;;;;;90.05;31.10;;;;;;;;;;5045768;28;20040;-70
2022/03/28 12:48:15;;;;;;;84.80;29.35;;;;;;;;;;5039443;28;20028;-70
2022/03/28 12:51:04;;;;;;;84.65;28.80;;;;;;;;;;5040890;28;20135;-70
2022/03/28 12:53:29;;;;;;;91.65;30.50;;;;;;;;;;5046052;28;20033;-71
2022/03/28 12:56:09;;;;;;;86.53;30.25;;;;;;;;;;5042244;28;20031;-70
2022/03/28 12:58:34;;;;;;;92.75;31.15;;;;;;;;;;5045655;28;20033;-70
2022/03/28 13:01:08;;;;;;;88.10;31.10;;;;;;;;;;5049725;28;20078;-69
2022/03/28 13:03:34;;;;;;;98.82;29.63;;;;;;;;;;5045430;28;20150;-70
2022/03/28 13:06:04;;;;;;;86.85;29.42;;;;;;;;;;5041048;28;20033;-69
2022/03/28 13:08:32;;;;;;;92.10;29.77;;;;;;;;;;5038446;28;20067;-71
2022/03/28 13:11:09;;;;;;;97.45;30.55;;;;;;;;;;5047932;28;20020;-70
2022/03/28 13:13:35;;;;;;;86.45;28.75;;;;;;;;;;5042207;28;20021;-68
2022/03/28 13:16:00;;;;;;;83.23;30.30;;;;;;;;;;5045247;28;20036;-70
2022/03/28 13:18:26;;;;;;;89.72;30.13;;;;;;;;;;5039967;28;20029;-70
2022/03/28 13:20:54;;;;;;;81.25;29.17;;;;;;;;;;5043889;28;20047;-69
2022/03/28 13:23:21;;;;;;;77.05;28.70;;;;;;;;;;5037030;28;20626;-71
2022/03/28 13:25:46;;;;;;;82.55;29.48;;;;;;;;;;5040169;28;20031;-69
2022/03/28 13:28:21;;;;;;;89.93;28.83;;;;;;;;;;5042454;28;20386;-70
2022/03/28 13:30:47;;;;;;;80.25;28.02;;;;;;;;;;5045849;28;20032;-69
2022/03/28 13:33:14;;;;;;;80.95;26.38;;;;;;;;;;5035277;28;20430;-69
2022/03/28 13:35:40;;;;;;;77.55;26.17;;;;;;;;;;5049318;28;20098;-69
2022/03/28 13:38:07;;;;;;;78.95;27.05;;;;;;;;;;5042853;28;20017;-69
2022/03/28 13:40:33;;;;;;;67.80;25.40;;;;;;;;;;5049132;28;20032;-69
2022/03/28 13:42:59;;;;;;;77.85;25.05;;;;;;;;;;5039894;28;20026;-68
2022/03/28 13:45:24;;;;;;;75.03;26.48;;;;;;;;;;5039639;28;20052;-67
2022/03/28 13:47:50;;;;;;;84.10;26.27;;;;;;;;;;5037047;28;20422;-68
2022/03/28 13:50:16;;;;;;;75.13;25.13;;;;;;;;;;5044310;28;20033;-70
2022/03/28 13:52:41;;;;;;;68.18;23.85;;;;;;;;;;5045505;28;20143;-72
2022/03/28 13:55:07;;;;;;;74.10;24.38;;;;;;;;;;5037686;28;20028;-71
2022/03/28 13:57:32;;;;;;;80.65;25.40;;;;;;;;;;5045555;28;20380;-71
2022/03/28 13:59:58;;;;;;;74.97;27.42;;;;;;;;;;5039521;28;20032;-70
2022/03/28 14:02:23;;;;;;;78.80;25.48;;;;;;;;;;5047650;28;20395;-71
2022/03/28 14:04:48;;;;;;;71.13;23.67;;;;;;;;;;5034992;28;20114;-71
2022/03/28 14:07:13;;;;;;;77.32;24.65;;;;;;;;;;5041765;28;20682;-69
2022/03/28 14:09:39;;;;;;;72.18;23.30;;;;;;;;;;5046929;28;20036;-70
2022/03/28 14:12:04;;;;;;;66.30;23.00;;;;;;;;;;5048276;28;20021;-70
2022/03/28 14:14:30;;;;;;;62.42;22.75;;;;;;;;;;5043162;28;20029;-70
2022/03/28 14:16:56;;;;;;;74.10;22.42;;;;;;;;;;5046953;28;20471;-70
2022/03/28 14:19:22;;;;;;;72.32;23.30;;;;;;;;;;5042259;28;20064;-70